Time;durP1;ratioP1;P1;durP2;ratioP2;P2;SDS_P1;SDS_P2;PMS_P1;PMS_P2;Temp;Humidity;BMP_temperature;BMP_pressure;BME280_temperature;BME280_humidity;BME280_pressure;Samples;Min_cycle;Max_cycle;Signal;HPM_P1;HPM_P2
2023/04/28 17:13:53;;;;;;;;;;;;;;;15.37;82.31;99405.78;1083244;54;20533;-77
2023/04/28 17:15:12;;;;;;;;;;;;;;;15.42;82.43;99408.72;1085387;54;19939;-78
2023/04/28 17:16:20;;;;;;;;;;;;;;;15.44;82.43;99403.97;1087037;54;19981;-78
2023/04/28 17:17:27;;;;;;;;;;;;;;;15.44;82.24;99401.28;1087398;47;20325;-79
2023/04/28 17:18:31;;;;;;;;;;;;;;;15.48;82.32;99395.53;1090147;46;19947;-77
2023/04/28 17:19:32;;;;;;;;;;;;;;;15.50;82.54;99399.69;1088768;46;19947;-78
2023/04/28 17:20:37;;;;;;;;;;;;;;;15.51;82.14;99403.22;1087781;54;19945;-80
2023/04/28 17:21:38;;;;;;;;;;;;;;;15.52;82.58;99389.56;1087839;54;19950;-81
2023/04/28 17:22:42;;;;;;;;;;;;;;;15.54;82.60;99394.75;1089638;39;20211;-80
2023/04/28 17:23:44;;;;;;;;;;;;;;;15.51;82.93;99397.81;1087469;54;19957;-80
2023/04/28 17:24:52;;;;;;;;;;;;;;;15.42;83.54;99389.06;1087594;54;19950;-78
2023/04/28 17:33:43;;;;;;;;;;;;;;;15.41;83.11;99388.19;1082696;54;20759;-78
2023/04/28 17:41:18;;;;;;;;;;;;;;;15.42;83.50;99389.88;1083204;54;19947;-79
2023/04/28 17:42:22;;;;;;;;;;;;;;;15.42;84.06;99389.88;1083891;54;19950;-79
2023/04/28 17:43:26;;;;;;;;;;;;;;;15.40;84.06;99391.91;1083473;54;19968;-80
2023/04/28 17:44:29;;;;;;;;;;;;;;;15.40;84.43;99391.91;1082978;54;19951;-78
2023/04/28 17:45:35;;;;;;;;;;;;;;;15.41;84.23;99398.97;1083611;54;19947;-79
2023/04/28 17:46:53;;;;;;;;;;;;;;;15.40;84.44;99391.91;1083626;54;19971;-77
2023/04/28 17:48:03;;;;;;;;;;;;;;;15.37;84.73;99391.47;1083821;54;19952;-80
2023/04/28 17:49:06;;;;;;;;;;;;;;;15.34;85.06;99402.66;1084746;54;19954;-79
2023/04/28 17:50:22;;;;;;;;;;;;;;;15.32;85.41;99400.13;1084644;54;19974;-78
2023/04/28 17:51:28;;;;;;;;;;;;;;;15.35;85.02;99404.31;1083691;54;19946;-80
2023/04/28 17:52:35;;;;;;;;;;;;;;;15.35;84.99;99410.53;1083460;54;19947;-78
2023/04/28 17:53:38;;;;;;;;;;;;;;;15.38;84.91;99409.31;1083881;54;20576;-80
2023/04/28 17:54:44;;;;;;;;;;;;;;;15.38;85.07;99404.75;1083298;54;19970;-78
2023/04/28 17:55:48;;;;;;;;;;;;;;;15.38;84.91;99402.06;1082163;54;19950;-78
2023/04/28 17:57:01;;;;;;;;;;;;;;;15.40;85.01;99415.34;1082343;54;19975;-77
2023/04/28 17:58:11;;;;;;;;;;;;;;;15.41;85.04;99415.13;1084321;54;20493;-79
2023/04/28 17:59:19;;;;;;;;;;;;;;;15.40;86.07;99418.03;1083518;54;19979;-80
2023/04/28 18:00:23;;;;;;;;;;;;;;;15.37;86.32;99421.94;1086274;46;19950;-82
2023/04/28 18:01:36;;;;;;;;;;;;;;;15.31;86.85;99409.22;1085602;54;19950;-83
2023/04/28 18:02:40;;;;;;;;;;;;;;;15.23;87.46;99414.72;1086155;54;19994;-80
2023/04/28 18:03:47;;;;;;;;;;;;;;;15.20;88.11;99417.81;1085883;46;19951;-82
2023/04/28 18:04:57;;;;;;;;;;;;;;;15.15;88.52;99412.16;1084996;46;19946;-78
2023/04/28 18:06:12;;;;;;;;;;;;;;;15.13;89.04;99412.38;1085916;46;19954;-77
2023/04/28 18:07:19;;;;;;;;;;;;;;;15.11;89.07;99423.31;1083224;54;19947;-77
2023/04/28 18:08:23;;;;;;;;;;;;;;;15.15;88.45;99420.25;1085505;54;20362;-78
2023/04/28 18:09:31;;;;;;;;;;;;;;;15.11;89.36;99417.91;1085589;46;20018;-77
2023/04/28 18:10:34;;;;;;;;;;;;;;;15.12;89.67;99416.91;1085081;54;19973;-78
2023/04/28 18:11:44;;;;;;;;;;;;;;;15.15;88.65;99420.25;1085080;54;19951;-78
2023/04/28 18:12:50;;;;;;;;;;;;;;;15.16;88.53;99411.97;1085538;54;19951;-79
2023/04/28 18:13:59;;;;;;;;;;;;;;;15.18;88.85;99425.25;1085051;54;19946;-78
2023/04/28 18:15:02;;;;;;;;;;;;;;;15.18;88.75;99414.50;1085489;54;19951;-77
2023/04/28 18:16:14;;;;;;;;;;;;;;;15.15;89.54;99415.72;1086537;39;20743;-78
2023/04/28 18:17:21;;;;;;;;;;;;;;;15.14;89.58;99422.13;1085120;54;20370;-78
2023/04/28 18:18:34;;;;;;;;;;;;;;;15.16;88.98;99425.44;1084729;54;19950;-80
2023/04/28 18:19:40;;;;;;;;;;;;;;;15.14;89.49;99424.81;1084420;46;19950;-77
2023/04/28 18:20:44;;;;;;;;;;;;;;;15.16;89.65;99422.72;1085536;54;19953;-77
2023/04/28 18:21:53;;;;;;;;;;;;;;;15.12;90.85;99424.97;1085873;46;20002;-78
2023/04/28 18:23:00;;;;;;;;;;;;;;;15.09;91.66;99428.06;1085599;54;19951;-77
2023/04/28 18:24:07;;;;;;;;;;;;;;;15.08;91.58;99420.16;1085172;54;20021;-77
2023/04/28 18:25:15;;;;;;;;;;;;;;;15.09;91.06;99417.28;1084855;54;19950;-79
2023/04/28 18:26:17;;;;;;;;;;;;;;;15.13;90.44;99428.50;1084893;54;19977;-77
2023/04/28 18:27:25;;;;;;;;;;;;;;;15.15;90.26;99422.94;1084215;54;19946;-77
2023/04/28 18:28:29;;;;;;;;;;;;;;;15.16;89.81;99421.91;1085163;54;20421;-78
2023/04/28 18:29:36;;;;;;;;;;;;;;;15.17;89.92;99421.72;1084266;54;19987;-77
2023/04/28 18:31:52;;;;;;;;;;;;;;;15.17;89.83;99415.50;1085294;54;20457;-77
2023/04/28 18:32:58;;;;;;;;;;;;;;;15.20;89.40;99415.97;1085414;46;19942;-78
2023/04/28 18:34:24;;;;;;;;;;;;;;;15.20;89.53;99418.66;1084975;54;19973;-78
2023/04/28 18:35:27;;;;;;;;;;;;;;;15.20;90.25;99429.41;1084180;54;20477;-77
2023/04/28 18:36:37;;;;;;;;;;;;;;;15.21;89.97;99435.66;1083867;54;19947;-76
2023/04/28 18:50:46;;;;;;;;;;;;;;;15.34;89.09;99443.84;1084266;54;19953;-77
2023/04/28 18:51:53;;;;;;;;;;;;;;;15.37;88.95;99442.63;1084567;54;19950;-78
2023/04/28 18:53:03;;;;;;;;;;;;;;;15.37;89.17;99446.19;1084518;54;19950;-76
2023/04/28 18:54:14;;;;;;;;;;;;;;;15.38;89.36;99445.16;1084884;54;19981;-77
2023/04/28 18:55:20;;;;;;;;;;;;;;;15.29;89.55;99441.75;1085315;46;19957;-76
2023/04/28 18:56:27;;;;;;;;;;;;;;;15.25;90.51;99436.91;1084126;54;19982;-77
2023/04/28 18:57:31;;;;;;;;;;;;;;;15.22;91.59;99445.38;1084413;47;19946;-77
2023/04/28 18:58:39;;;;;;;;;;;;;;;15.25;90.99;99443.16;1084236;54;19970;-77
2023/04/28 18:59:42;;;;;;;;;;;;;;;15.25;91.05;99447.69;1084689;47;19978;-77
2023/04/28 19:00:51;;;;;;;;;;;;;;;15.26;91.13;99447.50;1084934;47;19950;-77
2023/04/28 19:02:00;;;;;;;;;;;;;;;15.22;92.12;99448.06;1084974;39;20840;-77
2023/04/28 19:03:07;;;;;;;;;;;;;;;15.17;92.69;99445.94;1083651;54;19957;-77
2023/04/28 19:04:10;;;;;;;;;;;;;;;15.16;92.89;99446.13;1084242;54;20645;-77
2023/04/28 19:05:20;;;;;;;;;;;;;;;15.17;92.50;99450.50;1084256;54;19951;-78
2023/04/28 19:06:30;;;;;;;;;;;;;;;15.11;93.17;99447.53;1083686;54;19975;-77
2023/04/28 19:07:37;;;;;;;;;;;;;;;15.11;92.71;99452.91;1085269;47;19970;-78
2023/04/28 19:08:43;;;;;;;;;;;;;;;15.17;92.32;99450.50;1084024;54;19950;-77
2023/04/28 19:09:51;;;;;;;;;;;;;;;15.20;91.75;99450.13;1082949;54;19953;-76
2023/04/28 19:11:00;;;;;;;;;;;;;;;15.23;91.93;99452.44;1084019;46;20433;-76
2023/04/28 19:12:06;;;;;;;;;;;;;;;15.27;91.38;99461.81;1083749;39;20367;-76
2023/04/28 19:13:13;;;;;;;;;;;;;;;15.29;91.37;99457.06;1083889;54;19947;-77
2023/04/28 19:14:15;;;;;;;;;;;;;;;15.29;91.28;99454.38;1083130;54;19950;-77
2023/04/28 19:15:21;;;;;;;;;;;;;;;15.31;90.99;99457.69;1083369;54;19946;-77
2023/04/28 19:16:32;;;;;;;;;;;;;;;15.31;91.02;99456.88;1083733;54;19974;-76
2023/04/28 19:17:34;;;;;;;;;;;;;;;15.29;91.51;99451.69;1083409;54;19954;-76
2023/04/28 19:18:40;;;;;;;;;;;;;;;15.23;92.58;99460.50;1083263;54;19950;-77
2023/04/28 19:19:53;;;;;;;;;;;;;;;15.23;91.97;99460.50;1083407;54;19950;-76
2023/04/28 19:21:01;;;;;;;;;;;;;;;15.24;91.61;99462.19;1083168;54;19955;-77
2023/04/28 19:22:31;;;;;;;;;;;;;;;15.23;91.97;99464.03;1083799;54;19978;-76
2023/04/28 19:23:38;;;;;;;;;;;;;;;15.22;91.65;99465.06;1083327;54;19951;-78
2023/04/28 19:24:42;;;;;;;;;;;;;;;15.24;91.39;99467.56;1083698;54;20450;-76
2023/04/28 19:25:49;;;;;;;;;;;;;;;15.24;91.38;99467.56;1082700;54;19998;-77
2023/04/28 19:26:56;;;;;;;;;;;;;;;15.22;92.16;99469.59;1083116;54;20002;-79
2023/04/28 19:28:03;;;;;;;;;;;;;;;15.21;92.01;99462.56;1083436;54;19981;-76
2023/04/28 19:29:12;;;;;;;;;;;;;;;15.18;91.64;99468.31;1083270;54;20532;-77
2023/04/28 19:30:23;;;;;;;;;;;;;;;15.11;92.22;99463.69;1082882;47;20033;-77
2023/04/28 19:31:29;;;;;;;;;;;;;;;15.09;92.33;99465.75;1082780;39;20784;-76
2023/04/28 19:32:33;;;;;;;;;;;;;;;15.06;92.31;99470.69;1082924;47;19986;-77
2023/04/28 19:33:39;;;;;;;;;;;;;;;15.07;92.26;99475.88;1082152;54;19946;-76
2023/04/28 19:34:43;;;;;;;;;;;;;;;15.06;91.92;99479.56;1082306;54;19951;-75
2023/04/28 19:35:48;;;;;;;;;;;;;;;15.05;92.14;99469.81;1081506;54;20798;-75
2023/04/28 19:36:54;;;;;;;;;;;;;;;15.06;91.90;99481.44;1081556;54;19977;-76
2023/04/28 19:38:03;;;;;;;;;;;;;;;15.03;91.89;99482.63;1082631;39;20372;-78
2023/04/28 19:39:07;;;;;;;;;;;;;;;15.02;91.99;99480.97;1082491;54;19947;-77
2023/04/28 19:40:16;;;;;;;;;;;;;;;14.96;92.21;99481.72;1082506;54;19969;-77
2023/04/28 19:41:22;;;;;;;;;;;;;;;14.98;92.56;99479.69;1082059;47;19984;-76
2023/04/28 19:42:28;;;;;;;;;;;;;;;14.99;92.11;99475.97;1082511;47;20446;-77
2023/04/28 19:43:31;;;;;;;;;;;;;;;15.01;91.96;99470.38;1082673;54;20289;-77
2023/04/28 19:44:38;;;;;;;;;;;;;;;14.94;92.51;99471.16;1082062;54;19950;-76
2023/04/28 19:45:48;;;;;;;;;;;;;;;14.90;93.63;99472.53;1082618;54;19953;-77
2023/04/28 19:46:55;;;;;;;;;;;;;;;14.89;93.81;99472.72;1082011;54;19947;-76
2023/04/28 19:48:01;;;;;;;;;;;;;;;14.92;93.80;99475.88;1081907;54;19957;-75
2023/04/28 19:49:04;;;;;;;;;;;;;;;14.96;93.14;99466.41;1082393;39;20534;-77
2023/04/28 19:50:11;;;;;;;;;;;;;;;14.96;92.75;99473.66;1082019;54;19962;-76
2023/04/28 19:51:17;;;;;;;;;;;;;;;14.98;93.08;99477.00;1082031;54;19953;-76
2023/04/28 19:52:20;;;;;;;;;;;;;;;14.98;92.94;99471.59;1081764;54;19973;-76
2023/04/28 19:53:39;;;;;;;;;;;;;;;15.00;92.43;99471.41;1082460;39;20459;-76
2023/04/28 19:54:42;;;;;;;;;;;;;;;14.99;92.59;99478.66;1082898;54;19950;-76
2023/04/28 19:55:52;;;;;;;;;;;;;;;14.98;92.54;99475.13;1083809;54;19950;-77
2023/04/28 19:56:55;;;;;;;;;;;;;;;14.96;93.47;99492.47;1083200;54;20394;-77
2023/04/28 19:58:02;;;;;;;;;;;;;;;14.97;92.97;99488.78;1082745;54;20054;-79
2023/04/28 19:59:21;;;;;;;;;;;;;;;14.96;93.43;99487.09;1083170;54;20016;-77
2023/04/28 20:00:28;;;;;;;;;;;;;;;14.90;93.14;99483.28;1083746;54;19947;-77
2023/04/28 20:01:40;;;;;;;;;;;;;;;14.89;92.85;99480.81;1083909;47;19951;-77
2023/04/28 20:02:46;;;;;;;;;;;;;;;14.86;93.75;99484.72;1083456;54;19947;-77
2023/04/28 20:03:49;;;;;;;;;;;;;;;14.87;93.54;99490.91;1083951;54;19947;-79
2023/04/28 20:04:56;;;;;;;;;;;;;;;14.83;94.06;99501.22;1083581;54;19953;-77
2023/04/28 20:06:04;;;;;;;;;;;;;;;14.77;93.74;99505.47;1084673;39;20490;-78
2023/04/28 20:07:16;;;;;;;;;;;;;;;14.76;93.91;99506.50;1083514;54;19955;-79
2023/04/28 20:08:29;;;;;;;;;;;;;;;14.74;93.34;99502.34;1083619;54;19955;-78
2023/04/28 20:09:38;;;;;;;;;;;;;;;14.66;94.93;99512.16;1083895;54;19977;-79
2023/04/28 20:10:47;;;;;;;;;;;;;;;14.62;94.84;99507.31;1083898;54;19970;-78
2023/04/28 20:11:56;;;;;;;;;;;;;;;14.61;94.63;99505.63;1083082;54;19946;-77
2023/04/28 20:13:03;;;;;;;;;;;;;;;14.58;94.78;99503.31;1083787;39;20506;-79
2023/04/28 20:14:20;;;;;;;;;;;;;;;14.58;94.51;99506.84;1083706;54;19953;-78
2023/04/28 20:15:23;;;;;;;;;;;;;;;14.50;94.97;99510.44;1083017;54;19947;-81
2023/04/28 20:16:29;;;;;;;;;;;;;;;14.44;96.02;99499.59;1083559;46;19970;-78
2023/04/28 20:17:38;;;;;;;;;;;;;;;14.49;95.29;99500.69;1083823;54;20050;-78
2023/04/28 20:18:44;;;;;;;;;;;;;;;14.52;94.67;99494.13;1083973;54;19958;-78
2023/04/28 20:19:48;;;;;;;;;;;;;;;14.47;94.50;99502.72;1083812;54;19947;-77
2023/04/28 20:20:56;;;;;;;;;;;;;;;14.47;95.08;99505.41;1083789;54;20025;-79
2023/04/28 20:22:02;;;;;;;;;;;;;;;14.50;94.78;99509.59;1084189;54;19969;-78
2023/04/28 20:23:09;;;;;;;;;;;;;;;14.49;94.46;99506.09;1085750;54;19942;-78
2023/04/28 20:24:15;;;;;;;;;;;;;;;14.46;94.14;99501.06;1085312;46;19966;-79
2023/04/28 20:25:25;;;;;;;;;;;;;;;14.43;94.87;99497.91;1086136;39;20184;-79
2023/04/28 20:26:30;;;;;;;;;;;;;;;14.45;94.80;99504.75;1086923;46;19969;-77
2023/04/28 20:27:39;;;;;;;;;;;;;;;14.49;94.08;99506.09;1086267;54;19943;-80
2023/04/28 20:28:44;;;;;;;;;;;;;;;14.50;93.60;99509.59;1085983;54;19970;-78
2023/04/28 20:29:56;;;;;;;;;;;;;;;14.52;93.45;99502.19;1086162;39;20386;-77
2023/04/28 20:31:00;;;;;;;;;;;;;;;14.53;93.50;99503.84;1083723;54;19970;-77
2023/04/28 20:32:06;;;;;;;;;;;;;;;14.52;93.53;99502.19;1083815;54;19958;-78
2023/04/28 20:33:19;;;;;;;;;;;;;;;14.53;93.17;99492.28;1083905;54;20520;-78
2023/04/28 20:34:25;;;;;;;;;;;;;;;14.55;93.30;99493.75;1083754;54;20050;-79
2023/04/28 20:35:33;;;;;;;;;;;;;;;14.56;93.33;99498.13;1083876;54;19946;-82
2023/04/28 20:36:38;;;;;;;;;;;;;;;14.59;93.13;99499.59;1083819;54;19950;-77
2023/04/28 20:37:45;;;;;;;;;;;;;;;14.60;92.53;99496.72;1084192;54;19969;-79
2023/04/28 20:38:51;;;;;;;;;;;;;;;14.58;92.56;99497.94;1085195;54;20448;-77
2023/04/28 20:39:55;;;;;;;;;;;;;;;14.55;93.25;99504.50;1084469;39;20388;-78
2023/04/28 20:41:09;;;;;;;;;;;;;;;14.56;93.04;99502.66;1084481;47;19950;-78
2023/04/28 20:42:11;;;;;;;;;;;;;;;14.55;92.71;99495.63;1084607;54;19947;-78
2023/04/28 20:43:26;;;;;;;;;;;;;;;14.55;93.00;99501.00;1085372;54;19954;-80
2023/04/28 20:44:35;;;;;;;;;;;;;;;14.55;92.76;99501.81;1085615;54;20281;-78
2023/04/28 20:45:41;;;;;;;;;;;;;;;14.56;92.70;99497.28;1084627;54;19950;-77
2023/04/28 20:46:57;;;;;;;;;;;;;;;14.55;93.00;99496.44;1084810;54;19975;-78
2023/04/28 20:48:04;;;;;;;;;;;;;;;14.54;93.14;99494.78;1085525;46;19978;-79
2023/04/28 20:49:11;;;;;;;;;;;;;;;14.57;92.82;99496.25;1085348;54;20022;-78
2023/04/28 20:50:17;;;;;;;;;;;;;;;14.53;92.77;99493.09;1085311;54;19958;-79
2023/04/28 20:51:23;;;;;;;;;;;;;;;14.55;92.76;99487.56;1085651;54;19946;-79
2023/04/28 20:52:30;;;;;;;;;;;;;;;14.55;92.96;99479.50;1085414;54;19973;-78
2023/04/28 20:53:32;;;;;;;;;;;;;;;14.58;92.83;99489.84;1084995;54;19969;-77
2023/04/28 20:54:39;;;;;;;;;;;;;;;14.57;92.88;99477.44;1085421;54;19943;-78
2023/04/28 20:55:46;;;;;;;;;;;;;;;14.55;93.08;99490.25;1082832;54;20033;-78
2023/04/28 20:57:05;;;;;;;;;;;;;;;14.55;93.14;99480.31;1082902;54;20552;-77
2023/04/28 20:58:11;;;;;;;;;;;;;;;14.54;93.26;99483.19;1084242;54;19946;-78
2023/04/28 20:59:15;;;;;;;;;;;;;;;14.51;93.08;99479.00;1084382;39;20208;-78
2023/04/28 21:00:20;;;;;;;;;;;;;;;14.50;93.33;99483.56;1083982;54;19947;-79
2023/04/28 21:01:25;;;;;;;;;;;;;;;14.47;93.08;99481.22;1082907;54;19951;-77
2023/04/28 21:02:28;;;;;;;;;;;;;;;14.45;93.33;99483.25;1083041;39;20231;-78
2023/04/28 21:03:43;;;;;;;;;;;;;;;14.45;93.76;99485.94;1083194;54;19950;-77
2023/04/28 21:04:47;;;;;;;;;;;;;;;14.48;93.38;99484.75;1083713;54;19981;-78
2023/04/28 21:05:54;;;;;;;;;;;;;;;14.48;92.97;99484.75;1083822;54;20413;-77
2023/04/28 21:06:59;;;;;;;;;;;;;;;14.49;93.18;99483.75;1083877;54;19969;-77
2023/04/28 21:08:07;;;;;;;;;;;;;;;14.47;93.09;99481.22;1084032;54;19947;-77
2023/04/28 21:09:18;;;;;;;;;;;;;;;14.47;93.14;99489.28;1083828;54;20453;-78
2023/04/28 21:10:30;;;;;;;;;;;;;;;14.46;92.95;99490.31;1084195;54;20535;-78
2023/04/28 21:11:42;;;;;;;;;;;;;;;14.44;93.28;99483.44;1083382;54;19950;-80
2023/04/28 21:12:45;;;;;;;;;;;;;;;14.41;93.28;99489.19;1083730;54;19962;-77
2023/04/28 21:13:49;;;;;;;;;;;;;;;14.42;93.54;99483.63;1084912;39;20436;-78
2023/04/28 21:14:50;;;;;;;;;;;;;;;14.41;93.67;99489.19;1083644;54;19951;-78
2023/04/28 21:15:54;;;;;;;;;;;;;;;14.35;93.31;99485.41;1083934;54;19958;-78
2023/04/28 21:16:56;;;;;;;;;;;;;;;14.34;93.72;99484.53;1084973;54;19950;-78
2023/04/28 21:18:00;;;;;;;;;;;;;;;14.32;93.96;99485.75;1085365;54;19950;-79
2023/04/28 21:19:02;;;;;;;;;;;;;;;14.29;94.33;99484.28;1085208;54;19950;-78
2023/04/28 21:20:06;;;;;;;;;;;;;;;14.27;94.83;99483.63;1086554;31;20433;-78
2023/04/28 21:21:07;;;;;;;;;;;;;;;14.27;94.59;99488.13;1085160;54;19951;-78
2023/04/28 21:22:13;;;;;;;;;;;;;;;14.25;94.98;99490.19;1085485;54;19951;-78
2023/04/28 21:23:14;;;;;;;;;;;;;;;14.25;94.55;99479.44;1084344;54;19953;-77
2023/04/28 21:24:17;;;;;;;;;;;;;;;14.24;94.93;99477.78;1083076;54;19950;-77
2023/04/28 21:25:19;;;;;;;;;;;;;;;14.19;95.33;99489.91;1083128;54;20416;-77
2023/04/28 21:26:23;;;;;;;;;;;;;;;14.20;95.61;99482.69;1083716;54;19946;-77
2023/04/28 21:27:24;;;;;;;;;;;;;;;14.16;95.62;99490.28;1085186;54;19953;-78
2023/04/28 21:28:32;;;;;;;;;;;;;;;14.12;95.81;99491.66;1084980;54;19973;-79
2023/04/28 21:29:36;;;;;;;;;;;;;;;14.15;96.09;99485.91;1084670;54;19954;-78
2023/04/28 21:30:37;;;;;;;;;;;;;;;14.15;96.28;99487.75;1084690;54;19965;-78
2023/04/28 21:31:41;;;;;;;;;;;;;;;14.15;96.19;99496.66;1084910;54;19958;-78
2023/04/28 21:32:42;;;;;;;;;;;;;;;14.13;96.41;99495.16;1085802;46;20500;-77
2023/04/28 21:33:45;;;;;;;;;;;;;;;14.11;96.18;99494.53;1084829;54;19957;-79
2023/04/28 21:34:47;;;;;;;;;;;;;;;14.06;96.92;99489.69;1084527;54;19947;-78
2023/04/28 21:35:51;;;;;;;;;;;;;;;14.01;97.69;99489.38;1084872;54;20073;-77
2023/04/28 21:36:52;;;;;;;;;;;;;;;13.98;97.94;99495.13;1084159;39;20322;-78
2023/04/28 21:37:56;;;;;;;;;;;;;;;13.97;97.86;99493.47;1083521;54;19954;-79
2023/04/28 21:38:57;;;;;;;;;;;;;;;13.95;98.34;99492.81;1084060;54;20436;-78
2023/04/28 21:40:01;;;;;;;;;;;;;;;13.91;98.68;99494.16;1083795;54;19978;-78
2023/04/28 21:41:06;;;;;;;;;;;;;;;13.92;98.55;99485.09;1083931;54;19957;-78
2023/04/28 21:42:07;;;;;;;;;;;;;;;13.88;98.77;99496.22;1083863;54;19950;-78
2023/04/28 21:43:11;;;;;;;;;;;;;;;13.90;98.80;99490.66;1084619;46;19954;-78
2023/04/28 21:44:18;;;;;;;;;;;;;;;13.89;98.23;99483.59;1083556;54;19947;-78
2023/04/28 21:45:19;;;;;;;;;;;;;;;13.86;98.59;99498.25;1083576;54;19946;-78
2023/04/28 21:46:25;;;;;;;;;;;;;;;13.83;98.93;99493.22;1083751;54;20069;-79
2023/04/28 21:47:27;;;;;;;;;;;;;;;13.85;99.12;99493.88;1083807;54;19946;-78
2023/04/28 21:48:30;;;;;;;;;;;;;;;13.84;98.93;99489.53;1083976;54;20029;-78
2023/04/28 21:49:31;;;;;;;;;;;;;;;13.81;98.54;99494.41;1083877;54;19954;-79
2023/04/28 21:50:36;;;;;;;;;;;;;;;13.82;98.88;99490.72;1083835;54;20284;-80
2023/04/28 21:51:41;;;;;;;;;;;;;;;13.83;98.59;99487.84;1083691;54;19953;-78
2023/04/28 21:52:42;;;;;;;;;;;;;;;13.81;98.81;99486.38;1083676;54;20310;-78
2023/04/28 21:53:45;;;;;;;;;;;;;;;13.80;99.18;99482.81;1083980;39;20405;-77
2023/04/28 21:54:46;;;;;;;;;;;;;;;13.80;99.08;99487.38;1083615;54;19974;-77
2023/04/28 21:55:50;;;;;;;;;;;;;;;13.80;98.86;99488.19;1083467;54;19962;-77
2023/04/28 21:56:51;;;;;;;;;;;;;;;13.80;99.55;99487.38;1083572;54;20516;-77
2023/04/28 21:57:55;;;;;;;;;;;;;;;13.80;98.97;99488.19;1083673;54;19946;-77
2023/04/28 21:58:57;;;;;;;;;;;;;;;13.80;99.18;99488.19;1083455;54;20325;-78
2023/04/28 22:00:05;;;;;;;;;;;;;;;13.79;99.19;99486.53;1083802;54;20062;-78
2023/04/28 22:01:06;;;;;;;;;;;;;;;13.82;99.12;99480.81;1084060;39;20782;-76
2023/04/28 22:02:10;;;;;;;;;;;;;;;13.86;98.65;99484.81;1083612;54;20073;-77
2023/04/28 22:03:12;;;;;;;;;;;;;;;13.85;98.62;99491.19;1083748;39;20439;-77
2023/04/28 22:04:16;;;;;;;;;;;;;;;13.83;99.48;99493.22;1083369;54;20054;-77
2023/04/28 22:05:17;;;;;;;;;;;;;;;13.85;99.14;99495.72;1083606;39;20439;-78
2023/04/28 22:06:21;;;;;;;;;;;;;;;13.87;98.67;99488.31;1084071;39;20330;-77
2023/04/28 22:07:24;;;;;;;;;;;;;;;13.86;98.84;99502.75;1083552;54;20512;-77
2023/04/28 22:08:28;;;;;;;;;;;;;;;13.85;99.14;99490.34;1083557;54;19969;-77
2023/04/28 22:09:29;;;;;;;;;;;;;;;13.86;98.88;99492.03;1083485;54;19947;-77
2023/04/28 22:10:34;;;;;;;;;;;;;;;13.83;99.02;99490.53;1083119;54;19985;-76
2023/04/28 22:11:35;;;;;;;;;;;;;;;13.82;99.13;99486.16;1083328;54;19954;-77
2023/04/28 22:12:39;;;;;;;;;;;;;;;13.81;99.32;99495.25;1083437;54;19998;-80
2023/04/28 22:13:40;;;;;;;;;;;;;;;13.83;99.08;99487.03;1083669;54;19950;-77
2023/04/28 22:14:44;;;;;;;;;;;;;;;13.82;99.01;99498.78;1083228;54;19951;-77
2023/04/28 22:15:48;;;;;;;;;;;;;;;13.85;98.58;99499.25;1084263;54;19947;-77
2023/04/28 22:16:52;;;;;;;;;;;;;;;13.82;98.63;99494.22;1084489;46;19946;-78
2023/04/28 22:17:53;;;;;;;;;;;;;;;13.81;98.64;99492.56;1084126;54;19958;-77
2023/04/28 22:18:57;;;;;;;;;;;;;;;13.84;98.46;99492.22;1084148;54;19946;-79
2023/04/28 22:19:58;;;;;;;;;;;;;;;13.82;98.82;99490.72;1084257;54;19974;-78
2023/04/28 22:21:02;;;;;;;;;;;;;;;13.79;99.52;99489.22;1084056;54;19947;-78
2023/04/28 22:22:04;;;;;;;;;;;;;;;13.79;99.56;99485.69;1084735;39;20365;-78
2023/04/28 22:23:07;;;;;;;;;;;;;;;13.79;99.64;99491.91;1083989;54;19951;-78
2023/04/28 22:24:09;;;;;;;;;;;;;;;13.80;99.51;99492.75;1085038;39;20456;-78
2023/04/28 22:25:12;;;;;;;;;;;;;;;13.82;99.02;99490.72;1085227;39;20485;-78
2023/04/28 22:26:13;;;;;;;;;;;;;;;13.80;98.90;99490.88;1084098;54;19946;-77
2023/04/28 22:27:17;;;;;;;;;;;;;;;13.80;99.42;99488.19;1084390;54;19950;-78
2023/04/28 22:28:18;;;;;;;;;;;;;;;13.84;98.86;99494.91;1084021;39;20671;-78
2023/04/28 22:29:22;;;;;;;;;;;;;;;13.79;99.20;99491.91;1084389;54;19981;-78
2023/04/28 22:30:24;;;;;;;;;;;;;;;13.77;99.22;99487.72;1084206;54;19958;-77
2023/04/28 22:31:30;;;;;;;;;;;;;;;13.73;99.75;99487.25;1083782;54;19950;-77
2023/04/28 22:32:31;;;;;;;;;;;;;;;13.78;99.80;99490.25;1084394;54;19958;-77
2023/04/28 22:33:37;;;;;;;;;;;;;;;13.80;99.18;99488.19;1084571;54;19973;-77
2023/04/28 22:34:41;;;;;;;;;;;;;;;13.76;100.00;99486.03;1084457;54;19973;-77
2023/04/28 22:35:42;;;;;;;;;;;;;;;13.80;100.00;99487.38;1084610;54;19958;-77
2023/04/28 22:36:46;;;;;;;;;;;;;;;13.80;100.00;99493.56;1084154;54;19950;-79
2023/04/28 22:37:47;;;;;;;;;;;;;;;13.82;99.74;99496.09;1084211;54;19966;-78
2023/04/28 22:38:51;;;;;;;;;;;;;;;13.85;99.27;99488.50;1084312;54;19950;-77
2023/04/28 22:39:55;;;;;;;;;;;;;;;13.89;98.87;99489.81;1084063;54;19971;-78
2023/04/28 22:40:58;;;;;;;;;;;;;;;13.94;98.61;99491.94;1084526;54;19951;-77
2023/04/28 22:42:00;;;;;;;;;;;;;;;13.91;98.92;99492.34;1084117;54;19954;-77
2023/04/28 22:43:03;;;;;;;;;;;;;;;13.96;99.04;99494.47;1084646;39;20373;-77
2023/04/28 22:44:04;;;;;;;;;;;;;;;13.97;98.66;99498.84;1084183;54;19946;-78
2023/04/28 22:45:09;;;;;;;;;;;;;;;14.02;97.96;99491.06;1084011;54;19946;-79
2023/04/28 22:46:13;;;;;;;;;;;;;;;14.06;97.93;99497.75;1083938;54;19951;-78
2023/04/28 22:47:17;;;;;;;;;;;;;;;14.09;97.51;99497.38;1084001;54;19953;-78
2023/04/28 22:48:20;;;;;;;;;;;;;;;14.12;97.07;99490.81;1084415;54;19978;-78
2023/04/28 22:49:24;;;;;;;;;;;;;;;14.12;96.62;99488.97;1084048;54;19950;-77
2023/04/28 22:50:30;;;;;;;;;;;;;;;14.13;96.77;99493.31;1084145;54;19986;-78
2023/04/28 22:51:31;;;;;;;;;;;;;;;14.17;96.78;99491.09;1084257;54;19950;-77
2023/04/28 22:52:35;;;;;;;;;;;;;;;14.18;96.50;99488.22;1084335;54;19953;-79
2023/04/28 22:53:36;;;;;;;;;;;;;;;14.20;96.23;99493.44;1084506;54;19951;-79
2023/04/28 22:54:40;;;;;;;;;;;;;;;14.23;96.01;99484.16;1083997;54;19962;-78
2023/04/28 22:55:41;;;;;;;;;;;;;;;14.22;95.76;99494.06;1083443;54;20006;-79
2023/04/28 22:56:45;;;;;;;;;;;;;;;14.22;96.16;99490.56;1083539;54;19946;-78
2023/04/28 22:57:49;;;;;;;;;;;;;;;14.25;95.94;99484.81;1083212;54;19969;-78
2023/04/28 22:58:50;;;;;;;;;;;;;;;14.26;95.51;99490.00;1083213;54;19946;-78
2023/04/28 22:59:54;;;;;;;;;;;;;;;14.27;95.26;99494.38;1083027;54;19951;-79
2023/04/28 23:00:58;;;;;;;;;;;;;;;14.26;95.35;99492.69;1083179;54;19947;-78
2023/04/28 23:02:02;;;;;;;;;;;;;;;14.27;95.00;99490.81;1083284;54;19957;-77
2023/04/28 23:03:06;;;;;;;;;;;;;;;14.29;94.80;99488.78;1083336;54;19950;-76
2023/04/28 23:04:10;;;;;;;;;;;;;;;14.27;94.52;99502.44;1083264;54;19962;-77
2023/04/28 23:05:13;;;;;;;;;;;;;;;14.20;93.86;99493.44;1083459;54;19946;-77
2023/04/28 23:06:14;;;;;;;;;;;;;;;14.13;93.57;99492.47;1083132;54;19962;-77
2023/04/28 23:07:18;;;;;;;;;;;;;;;14.11;94.41;99497.22;1083310;54;19974;-77
2023/04/28 23:08:19;;;;;;;;;;;;;;;14.06;94.29;99497.75;1083661;54;19950;-79
2023/04/28 23:09:23;;;;;;;;;;;;;;;14.02;94.80;99497.28;1083162;54;19950;-77
2023/04/28 23:10:24;;;;;;;;;;;;;;;14.02;95.01;99493.75;1083447;54;20414;-76
2023/04/28 23:11:28;;;;;;;;;;;;;;;14.02;94.92;99496.44;1083289;54;19950;-77
2023/04/28 23:12:32;;;;;;;;;;;;;;;14.02;94.31;99496.44;1083585;54;19973;-77
2023/04/28 23:13:33;;;;;;;;;;;;;;;14.00;94.44;99495.78;1083246;54;19951;-77
2023/04/28 23:14:37;;;;;;;;;;;;;;;14.00;94.79;99503.84;1083118;54;19983;-79
2023/04/28 23:15:38;;;;;;;;;;;;;;;14.00;94.36;99501.16;1083893;39;20654;-78
2023/04/28 23:16:42;;;;;;;;;;;;;;;13.98;94.83;99500.50;1083585;54;19947;-78
2023/04/28 23:17:43;;;;;;;;;;;;;;;13.98;94.83;99500.50;1083556;54;19970;-80
2023/04/28 23:18:49;;;;;;;;;;;;;;;14.01;94.92;99505.50;1083745;54;19993;-78
2023/04/28 23:19:51;;;;;;;;;;;;;;;14.01;94.88;99503.66;1083444;54;19947;-78
2023/04/28 23:20:55;;;;;;;;;;;;;;;14.01;94.38;99505.50;1083333;54;19986;-78
2023/04/28 23:21:56;;;;;;;;;;;;;;;14.01;94.68;99498.28;1083421;54;19951;-77
2023/04/28 23:22:59;;;;;;;;;;;;;;;14.03;94.48;99506.16;1084371;39;20709;-79